Time;durP1;ratioP1;P1;durP2;ratioP2;P2;SDS_P1;SDS_P2;PMS_P1;PMS_P2;Temp;Humidity;BMP_temperature;BMP_pressure;BME280_temperature;BME280_humidity;BME280_pressure;Samples;Min_cycle;Max_cycle;Signal;HPM_P1;HPM_P2
2021/08/08 00:00:13;;;;;;;;;29.50;29.50;;;;;17.93;92.45;100454.81;5075327;27;44726;-92
2021/08/08 00:02:39;;;;;;;;;26.75;25.25;;;;;17.96;92.37;100467.97;5076639;27;44797;-94
2021/08/08 00:05:09;;;;;;;;;16.50;14.25;;;;;17.89;92.30;100471.41;5071477;27;44843;-92
2021/08/08 00:07:34;;;;;;;;;18.25;18.25;;;;;17.99;92.39;100475.75;5086987;27;45256;-91
2021/08/08 00:10:00;;;;;;;;;25.25;22.50;;;;;18.05;91.49;100505.78;5076017;27;44833;-90
2021/08/08 00:12:25;;;;;;;;;24.50;24.50;;;;;17.70;91.79;100460.53;5078214;27;44824;-91
2021/08/08 00:14:51;;;;;;;;;34.25;32.50;;;;;17.99;91.76;100510.72;5087523;27;44750;-91
2021/08/08 00:17:16;;;;;;;;;7.00;7.00;;;;;17.69;92.19;100474.13;5035129;27;45044;-91
2021/08/08 00:19:42;;;;;;;;;35.25;33.75;;;;;17.68;92.03;100476.00;5044067;27;44885;-91
2021/08/08 00:22:07;;;;;;;;;24.50;22.75;;;;;17.86;92.38;100507.50;5077182;28;44929;-91
2021/08/08 00:24:32;;;;;;;;;9.50;9.50;;;;;17.82;92.50;100503.41;5067269;27;44906;-92
2021/08/08 00:26:58;;;;;;;;;37.00;35.00;;;;;17.56;92.24;100471.75;5071910;27;45172;-91
2021/08/08 00:29:23;;;;;;;;;29.75;29.75;;;;;17.60;92.29;100476.69;5066442;28;44766;-92
2021/08/08 00:31:49;;;;;;;;;32.25;31.25;;;;;17.54;92.49;100473.75;5084770;27;44721;-91
2021/08/08 00:34:14;;;;;;;;;31.75;31.00;;;;;17.74;92.71;100512.22;5100927;27;44715;-92
2021/08/08 00:36:40;;;;;;;;;26.75;26.75;;;;;17.52;92.71;100468.50;5066564;28;44938;-92
2021/08/08 00:39:06;;;;;;;;;26.00;24.50;;;;;17.74;92.74;100517.59;5072108;28;44773;-93
2021/08/08 00:41:31;;;;;;;;;37.50;34.75;;;;;17.50;93.15;100469.66;5068056;27;44778;-93
2021/08/08 00:43:57;;;;;;;;;34.25;31.25;;;;;17.76;93.14;100509.38;5062277;28;44766;-92
2021/08/08 00:46:25;;;;;;;;;28.25;28.25;;;;;17.74;92.96;100514.91;5093204;27;45261;-94
2021/08/08 00:48:51;;;;;;;;;25.50;23.75;;;;;17.46;93.11;100471.75;5083923;27;44856;-93
2021/08/08 00:51:16;;;;;;;;;24.25;21.75;;;;;17.63;92.94;100505.13;5095000;27;44801;-94
2021/08/08 00:53:42;;;;;;;;;26.75;25.75;;;;;17.28;93.08;100445.59;5083328;27;44692;-92
2021/08/08 00:56:11;;;;;;;;;23.75;23.75;;;;;17.45;93.27;100483.50;5077487;27;44997;-92
2021/08/08 00:58:36;;;;;;;;;27.50;26.00;;;;;17.66;93.61;100526.34;5085668;27;44869;-93
2021/08/08 01:01:02;;;;;;;;;29.75;29.75;;;;;17.50;93.07;100501.91;5070906;27;45056;-92
2021/08/08 01:03:28;;;;;;;;;5.25;5.25;;;;;17.62;93.25;100530.31;5064029;27;44964;-93
2021/08/08 01:06:16;;;;;;;;;21.50;19.75;;;;;17.61;93.11;100528.63;5047812;27;45370;-92
2021/08/08 01:08:48;;;;;;;;;27.25;25.25;;;;;17.20;93.38;100467.81;5075480;28;44862;-91
2021/08/08 01:11:14;;;;;;;;;38.75;36.75;;;;;17.30;93.48;100486.63;5078263;27;44803;-88
2021/08/08 01:13:40;;;;;;;;;30.50;28.75;;;;;17.43;93.53;100515.03;5091414;27;44762;-92
2021/08/08 01:16:06;;;;;;;;;30.50;29.25;;;;;17.40;93.39;100502.75;5077849;27;46847;-94
2021/08/08 01:18:32;;;;;;;;;33.75;30.00;;;;;17.25;93.29;100475.44;5109771;27;45160;-91
2021/08/08 01:20:58;;;;;;;;;49.75;39.50;;;;;17.29;93.15;100479.56;5070990;27;45116;-91
2021/08/08 01:23:24;;;;;;;;;42.75;38.50;;;;;17.30;93.43;100475.00;5089492;27;44802;-90
2021/08/08 01:25:49;;;;;;;;;32.25;31.25;;;;;17.19;93.57;100466.09;5058329;27;45051;-90
2021/08/08 01:28:14;;;;;;;;;35.50;34.50;;;;;17.29;93.62;100479.56;5090401;27;44896;-93
2021/08/08 01:30:40;;;;;;;;;23.25;22.25;;;;;17.63;93.87;100540.06;5076880;28;45125;-92
2021/08/08 01:33:07;;;;;;;;;37.25;35.75;;;;;17.55;93.89;100519.31;5064118;28;45052;-92
2021/08/08 01:35:33;;;;;;;;;39.50;37.50;;;;;17.37;93.56;100484.22;5047817;27;45317;-92
2021/08/08 01:37:59;;;;;;;;;37.25;35.50;;;;;17.35;91.45;100491.59;5074726;27;44959;-92
2021/08/08 01:40:29;;;;;;;;;33.00;31.25;;;;;17.44;91.87;100520.28;5059833;27;44719;-92
2021/08/08 01:42:56;;;;;;;;;27.25;25.25;;;;;17.59;92.81;100531.47;5100989;27;44909;-92
2021/08/08 01:45:21;;;;;;;;;42.00;37.75;;;;;17.13;92.64;100452.41;5090350;28;44997;-93
2021/08/08 01:47:49;;;;;;;;;24.75;24.00;;;;;17.28;92.83;100477.84;5078930;27;44664;-90
2021/08/08 01:50:14;;;;;;;;;27.50;27.50;;;;;17.38;92.92;100493.97;5084718;27;44694;-90
2021/08/08 01:52:40;;;;;;;;;40.25;35.50;;;;;17.58;92.94;100526.22;5074146;28;44825;-92
2021/08/08 01:55:06;;;;;;;;;28.00;27.75;;;;;17.38;93.22;100488.59;5067378;27;44958;-91
2021/08/08 01:57:33;;;;;;;;;11.25;11.00;;;;;17.70;93.18;100529.63;5078624;28;45052;-95
2021/08/08 01:59:59;;;;;;;;;42.25;38.25;;;;;17.70;93.35;100538.50;5071581;27;44781;-91
2021/08/08 02:02:25;;;;;;;;;41.75;38.75;;;;;17.73;93.32;100535.53;5066548;27;44842;-92
2021/08/08 02:04:50;;;;;;;;;27.75;27.75;;;;;17.20;93.62;100446.31;5079966;27;45231;-91
2021/08/08 02:07:18;;;;;;;;;19.75;17.25;;;;;17.37;93.40;100478.84;5086145;28;44722;-90
2021/08/08 02:09:44;;;;;;;;;21.00;21.00;;;;;17.47;93.41;100487.75;5085512;28;44841;-90
2021/08/08 02:12:10;;;;;;;;;23.50;23.25;;;;;17.77;93.15;100529.88;5067637;28;44864;-91
2021/08/08 02:14:36;;;;;;;;;20.75;20.75;;;;;17.77;93.15;100541.50;5050867;28;45209;-92
2021/08/08 02:17:01;;;;;;;;;24.75;24.75;;;;;17.65;93.22;100515.75;5059212;27;44913;-92
2021/08/08 02:19:27;;;;;;;;;27.50;26.25;;;;;17.58;93.44;100502.03;5069159;27;44850;-89
2021/08/08 02:21:55;;;;;;;;;21.50;20.50;;;;;17.77;93.43;100536.13;5070393;28;44830;-93
2021/08/08 02:24:20;;;;;;;;;20.00;18.25;;;;;17.70;93.57;100535.81;5079928;27;45442;-93
2021/08/08 02:26:46;;;;;;;;;19.75;19.75;;;;;17.40;93.40;100493.81;5072799;28;45126;-92
2021/08/08 02:29:12;;;;;;;;;26.25;25.75;;;;;17.49;93.20;100503.72;5066553;28;45009;-93
2021/08/08 02:31:42;;;;;;;;;33.75;33.50;;;;;17.28;92.71;100477.00;5053475;27;44864;-93
2021/08/08 02:34:08;;;;;;;;;42.25;37.75;;;;;17.41;92.03;100492.84;5067635;28;45133;-91
2021/08/08 02:36:33;;;;;;;;;20.75;19.25;;;;;17.75;92.45;100558.75;5071999;27;44741;-93
2021/08/08 02:38:59;;;;;;;;;27.25;26.00;;;;;17.77;92.90;100556.78;5052657;27;46722;-92
2021/08/08 02:41:24;;;;;;;;;27.50;27.50;;;;;17.70;92.76;100545.75;5051308;27;45431;-90
2021/08/08 02:43:50;;;;;;;;;46.25;40.00;;;;;17.77;93.22;100567.53;5079034;27;45307;-90
2021/08/08 02:46:16;;;;;;;;;27.00;27.00;;;;;17.64;92.89;100549.88;5086956;27;45281;-92
2021/08/08 02:48:43;;;;;;;;;18.75;18.75;;;;;17.48;92.77;100521.69;5082319;27;44888;-92
2021/08/08 02:51:08;;;;;;;;;35.75;34.75;;;;;17.51;92.67;100525.91;5069934;27;44901;-92
2021/08/08 02:53:33;;;;;;;;;35.75;34.50;;;;;17.48;92.93;100524.38;5066231;27;47304;-90
2021/08/08 02:55:59;;;;;;;;;23.75;23.75;;;;;17.31;92.95;100488.31;5092512;27;44828;-93
2021/08/08 02:58:24;;;;;;;;;36.50;34.75;;;;;17.75;93.82;100561.44;5091528;27;44786;-92
2021/08/08 03:00:50;;;;;;;;;36.50;33.25;;;;;17.48;92.73;100531.59;5039924;27;44884;-92
2021/08/08 03:03:15;;;;;;;;;22.75;22.75;;;;;17.63;92.83;100558.91;5053158;27;44960;-92
2021/08/08 03:05:41;;;;;;;;;13.00;12.75;;;;;17.58;92.79;100550.41;5071474;27;44852;-92
2021/08/08 03:08:06;;;;;;;;;38.25;35.00;;;;;17.41;93.17;100528.63;5071010;27;44878;-91
2021/08/08 03:10:32;;;;;;;;;37.75;36.25;;;;;17.65;92.94;100578.44;5074383;28;44875;-90
2021/08/08 03:12:57;;;;;;;;;32.75;32.75;;;;;17.53;93.39;100560.72;5070261;28;45228;-91
2021/08/08 03:15:23;;;;;;;;;49.50;43.25;;;;;17.46;90.21;100552.38;5086559;28;44816;-91
2021/08/08 03:17:48;;;;;;;;;49.00;41.50;;;;;17.16;91.36;100516.59;5090640;27;44823;-92
2021/08/08 03:20:14;;;;;;;;;23.00;20.00;;;;;17.40;91.98;100567.25;5049845;27;44995;-92
2021/08/08 03:22:39;;;;;;;;;39.50;36.50;;;;;17.45;92.27;100581.09;5073582;27;45398;-90
2021/08/08 03:25:06;;;;;;;;;31.75;29.25;;;;;17.44;92.60;100586.63;5043216;28;44802;-90
2021/08/08 03:27:31;;;;;;;;;24.25;16.25;;;;;17.27;92.33;100567.50;5046477;28;44755;-91
2021/08/08 03:29:57;;;;;;;;;27.25;23.25;;;;;17.02;91.88;100528.56;5071049;28;44819;-92
2021/08/08 03:32:23;;;;;;;;;29.00;26.75;;;;;17.26;92.48;100573.00;5055730;27;45242;-92
2021/08/08 03:34:48;;;;;;;;;18.50;18.25;;;;;17.04;93.01;100538.19;5066436;27;44875;-90
2021/08/08 03:37:14;;;;;;;;;42.50;38.25;;;;;17.34;92.77;100594.66;5053084;27;45175;-90
2021/08/08 03:39:39;;;;;;;;;46.25;40.00;;;;;17.33;92.99;100596.50;5064641;28;44833;-91
2021/08/08 03:42:06;;;;;;;;;25.00;23.50;;;;;17.24;92.85;100583.03;5053783;28;46667;-92
2021/08/08 03:44:31;;;;;;;;;47.00;41.25;;;;;17.17;93.01;100580.06;5080870;27;44990;-93
2021/08/08 03:46:57;;;;;;;;;41.50;38.75;;;;;17.28;93.16;100589.84;5094316;27;44725;-92
2021/08/08 03:49:24;;;;;;;;;27.25;26.75;;;;;16.89;93.11;100523.41;5088500;28;44784;-92
2021/08/08 03:51:50;;;;;;;;;41.50;38.25;;;;;17.01;93.36;100557.25;5072119;27;46745;-93
2021/08/08 03:54:15;;;;;;;;;38.50;35.00;;;;;17.02;93.19;100555.41;5056249;28;44773;-92
2021/08/08 03:56:42;;;;;;;;;33.25;33.25;;;;;16.97;93.39;100559.34;5057308;27;45084;-92
2021/08/08 03:59:08;;;;;;;;;30.50;30.50;;;;;17.20;92.94;100595.91;5067237;27;45008;-91
2021/08/08 04:01:33;;;;;;;;;31.25;30.75;;;;;16.76;93.13;100535.25;5067040;27;45371;-91
2021/08/08 04:03:59;;;;;;;;;41.25;37.50;;;;;16.87;93.38;100552.25;5074951;27;44940;-91
2021/08/08 04:06:25;;;;;;;;;48.50;42.75;;;;;16.87;93.23;100555.81;5035562;27;44925;-92
2021/08/08 04:08:50;;;;;;;;;32.50;29.25;;;;;17.12;93.26;100595.75;5066055;27;44939;-91
2021/08/08 04:11:16;;;;;;;;;52.25;42.25;;;;;17.12;93.22;100595.75;5070904;27;45374;-91
2021/08/08 04:13:41;;;;;;;;;35.50;34.75;;;;;17.09;92.71;100602.25;5070058;27;44788;-91
2021/08/08 04:16:07;;;;;;;;;20.25;18.25;;;;;17.08;92.68;100604.09;5078530;27;44920;-91
2021/08/08 04:18:32;;;;;;;;;51.50;42.75;;;;;16.84;92.62;100569.50;5078907;27;44897;-92
2021/08/08 04:20:58;;;;;;;;;36.25;34.25;;;;;16.73;92.77;100561.53;5048959;27;45366;-92
2021/08/08 04:23:24;;;;;;;;;42.25;38.50;;;;;17.06;93.19;100618.66;5053048;27;44987;-92
2021/08/08 04:25:49;;;;;;;;;48.25;40.75;;;;;16.93;93.26;100600.88;5057882;27;45085;-92
2021/08/08 04:28:15;;;;;;;;;35.75;35.25;;;;;17.01;92.51;100616.31;5055231;27;44937;-92
2021/08/08 04:30:40;;;;;;;;;32.75;32.25;;;;;17.05;92.90;100630.31;5058907;27;45096;-92
2021/08/08 04:33:06;;;;;;;;;25.00;25.00;;;;;16.74;91.40;100574.84;5087035;27;44783;-91
2021/08/08 04:35:32;;;;;;;;;36.50;35.25;;;;;16.88;92.36;100604.97;5060621;28;44889;-92
2021/08/08 04:38:00;;;;;;;;;15.50;15.50;;;;;16.71;92.86;100583.97;5080000;28;44918;-92
2021/08/08 04:40:26;;;;;;;;;36.25;34.75;;;;;16.73;92.55;100583.03;5098386;27;45253;-92
2021/08/08 04:42:51;;;;;;;;;21.75;17.75;;;;;16.83;93.03;100608.06;5095047;27;44771;-94
2021/08/08 04:45:19;;;;;;;;;49.75;41.75;;;;;16.70;92.51;100598.41;5060069;27;45217;-92
2021/08/08 04:47:44;;;;;;;;;34.25;33.50;;;;;16.82;92.88;100617.97;5086846;27;44881;-90
2021/08/08 04:50:10;;;;;;;;;34.75;34.50;;;;;16.91;92.96;100619.00;5075133;27;44968;-90
2021/08/08 04:52:37;;;;;;;;;46.75;41.25;;;;;16.66;93.18;100593.44;5110164;27;45058;-91
2021/08/08 04:55:04;;;;;;;;;36.75;34.50;;;;;16.84;92.93;100626.72;5086867;27;44880;-90
2021/08/08 04:57:30;;;;;;;;;22.75;22.75;;;;;16.88;93.24;100635.38;5076848;28;44833;-90
2021/08/08 04:59:55;;;;;;;;;40.50;35.75;;;;;16.60;92.48;100591.31;5072398;27;45314;-93
2021/08/08 05:02:21;;;;;;;;;39.50;36.25;;;;;16.84;92.75;100625.88;5078570;27;44714;-92
2021/08/08 05:04:46;;;;;;;;;33.00;32.00;;;;;16.58;92.77;100597.63;5093601;27;44871;-93
2021/08/08 05:07:12;;;;;;;;;26.75;24.00;;;;;16.60;92.69;100594.81;5091832;27;44772;-91
2021/08/08 05:09:37;;;;;;;;;26.75;26.00;;;;;16.61;92.90;100596.50;5052006;27;45344;-91
2021/08/08 05:12:03;;;;;;;;;44.50;39.50;;;;;16.71;89.93;100624.25;5048986;27;44942;-91
2021/08/08 05:14:29;;;;;;;;;41.75;37.50;;;;;16.63;90.46;100601.75;5075782;27;44784;-92
2021/08/08 05:16:55;;;;;;;;;44.00;40.25;;;;;16.40;90.77;100572.41;5070612;27;44815;-91
2021/08/08 05:19:20;;;;;;;;;43.50;38.25;;;;;16.79;91.56;100626.28;5085412;27;45406;-93
2021/08/08 05:21:46;;;;;;;;;30.25;30.25;;;;;16.92;92.30;100642.16;5057268;27;44776;-92
2021/08/08 05:24:12;;;;;;;;;28.50;26.50;;;;;16.66;92.32;100602.34;5056092;27;44765;-89
2021/08/08 05:26:38;;;;;;;;;45.00;38.75;;;;;16.97;92.74;100639.06;5067083;27;44876;-91
2021/08/08 05:29:03;;;;;;;;;54.50;44.75;;;;;16.60;92.74;100572.50;5070556;27;45076;-91
2021/08/08 05:31:29;;;;;;;;;46.25;41.50;;;;;16.86;92.77;100605.09;5099167;27;44757;-88
2021/08/08 05:33:54;;;;;;;;;37.50;34.50;;;;;16.84;93.18;100607.91;5085759;28;44616;-90
2021/08/08 05:36:19;;;;;;;;;46.75;40.25;;;;;16.81;92.81;100600.16;5051543;27;44975;-91
2021/08/08 05:38:45;;;;;;;;;40.75;35.25;;;;;16.79;93.08;100587.84;5067838;28;45071;-91
2021/08/08 05:41:12;;;;;;;;;38.75;35.25;;;;;17.16;92.91;100654.47;5099241;27;44703;-88
2021/08/08 05:43:38;;;;;;;;;24.50;24.50;;;;;17.15;92.88;100644.66;5084554;27;44741;-90
2021/08/08 05:46:03;;;;;;;;;21.00;21.00;;;;;17.06;92.25;100627.53;5075828;27;44867;-89
2021/08/08 05:48:29;;;;;;;;;48.25;41.50;;;;;17.20;92.12;100638.91;5099923;27;45049;-90
2021/08/08 05:50:54;;;;;;;;;43.75;37.25;;;;;17.15;92.58;100639.31;5073215;28;44747;-91
2021/08/08 05:53:20;;;;;;;;;42.50;37.75;;;;;16.88;92.83;100592.41;5084366;28;44754;-91
2021/08/08 05:55:46;;;;;;;;;40.33;38.00;;;;;17.04;92.16;100621.44;5045891;27;44806;-91
2021/08/08 05:58:13;;;;;;;;;35.25;34.25;;;;;17.14;92.11;100637.59;5057972;28;45433;-91
2021/08/08 06:00:39;;;;;;;;;29.25;29.25;;;;;16.91;91.97;100600.19;5102040;27;44789;-92
2021/08/08 06:03:07;;;;;;;;;37.00;36.00;;;;;17.00;92.35;100614.63;5064634;27;44907;-92
2021/08/08 06:05:32;;;;;;;;;27.25;25.00;;;;;17.29;91.55;100664.09;5086987;27;44766;-91
2021/08/08 06:07:58;;;;;;;;;36.00;34.25;;;;;17.12;91.66;100644.94;5088573;27;45445;-93
2021/08/08 06:10:26;;;;;;;;;40.33;36.00;;;;;17.01;91.40;100628.91;5077942;27;44814;-92
2021/08/08 06:12:52;;;;;;;;;40.25;36.50;;;;;16.87;91.24;100617.56;5068049;27;44754;-92
2021/08/08 06:15:17;;;;;;;;;20.00;19.50;;;;;17.03;89.76;100645.75;5053743;27;44842;-90
2021/08/08 06:17:43;;;;;;;;;37.75;34.75;;;;;17.26;90.38;100675.97;5071098;27;45238;-92
2021/08/08 06:20:08;;;;;;;;;15.75;11.00;;;;;16.91;90.94;100623.50;5073433;27;44693;-92
2021/08/08 06:22:34;;;;;;;;;34.50;33.75;;;;;17.26;89.40;100675.13;5094407;27;44823;-93
2021/08/08 06:24:59;;;;;;;;;39.25;36.25;;;;;17.27;89.92;100682.19;5077855;27;44694;-91
2021/08/08 06:27:25;;;;;;;;;37.00;35.75;;;;;17.24;90.59;100664.50;5050791;27;44944;-91
2021/08/08 06:29:50;;;;;;;;;51.50;43.75;;;;;17.34;91.13;100686.88;5090373;27;44741;-90
2021/08/08 06:32:19;;;;;;;;;39.50;34.25;;;;;17.40;91.75;100676.56;5050870;28;44767;-93
2021/08/08 06:34:44;;;;;;;;;38.25;35.25;;;;;17.13;91.39;100638.59;5049084;28;44906;-92
2021/08/08 06:37:10;;;;;;;;;23.75;21.25;;;;;17.19;91.02;100646.09;5069252;27;47304;-91
2021/08/08 06:39:35;;;;;;;;;31.00;31.00;;;;;17.08;91.25;100624.72;5085515;27;44861;-92
2021/08/08 06:42:01;;;;;;;;;28.25;27.25;;;;;17.30;90.60;100668.47;5092733;27;44809;-91
2021/08/08 06:44:28;;;;;;;;;22.00;22.00;;;;;17.57;89.58;100705.47;5080875;27;44856;-90
2021/08/08 06:46:54;;;;;;;;;40.00;37.00;;;;;17.13;88.17;100627.00;5058688;27;45346;-91
2021/08/08 06:49:20;;;;;;;;;30.50;29.00;;;;;17.34;88.99;100670.75;5078868;28;45199;-91
2021/08/08 06:51:45;;;;;;;;;28.00;24.75;;;;;17.27;88.90;100653.47;5058182;27;44896;-91
2021/08/08 06:54:12;;;;;;;;;28.25;27.00;;;;;17.07;90.00;100625.72;5053231;27;44954;-91
2021/08/08 06:56:41;;;;;;;;;25.75;23.75;;;;;17.13;88.42;100641.28;5074697;28;45149;-91
2021/08/08 06:59:07;;;;;;;;;25.50;25.50;;;;;17.55;89.70;100717.34;5083963;27;44609;-90
2021/08/08 07:01:32;;;;;;;;;21.00;19.00;;;;;17.19;86.73;100658.69;5099934;27;44665;-90
2021/08/08 07:03:58;;;;;;;;;27.25;26.25;;;;;17.39;88.79;100693.69;5086604;28;44780;-93
2021/08/08 07:06:23;;;;;;;;;40.25;37.00;;;;;17.44;89.85;100694.97;5061813;27;45232;-90
2021/08/08 07:08:48;;;;;;;;;36.25;33.75;;;;;17.59;88.91;100716.09;5076819;28;44762;-94
2021/08/08 07:11:14;;;;;;;;;32.00;30.67;;;;;17.42;87.20;100694.28;5070353;27;44795;-94
2021/08/08 07:13:40;;;;;;;;;22.50;22.25;;;;;17.50;89.25;100711.56;5055382;27;45093;-90
2021/08/08 07:16:09;;;;;;;;;24.50;24.00;;;;;17.28;88.94;100668.59;5090363;27;45037;-92
2021/08/08 07:18:34;;;;;;;;;34.50;33.25;;;;;17.45;89.28;100698.50;5070679;28;44854;-93
2021/08/08 07:21:00;;;;;;;;;31.75;31.75;;;;;17.43;88.15;100679.84;5069819;27;44780;-94
2021/08/08 07:23:25;;;;;;;;;44.00;36.50;;;;;17.46;88.84;100676.88;5058620;28;44785;-92
2021/08/08 07:25:51;;;;;;;;;29.50;27.75;;;;;17.67;89.44;100702.78;5076097;27;45392;-90
2021/08/08 07:28:16;;;;;;;;;47.00;39.75;;;;;17.64;86.92;100691.47;5090628;27;44750;-92
2021/08/08 07:30:42;;;;;;;;;18.00;18.00;;;;;17.82;85.80;100716.72;5078131;28;44938;-94
2021/08/08 07:33:07;;;;;;;;;43.25;37.25;;;;;17.75;88.02;100696.75;5064674;28;44856;-92
2021/08/08 07:35:35;;;;;;;;;28.75;26.75;;;;;18.10;88.55;100745.66;5110913;27;44987;-87
2021/08/08 07:38:02;;;;;;;;;38.00;35.00;;;;;17.62;88.74;100645.91;5108597;27;44970;-87
2021/08/08 07:40:28;;;;;;;;;41.50;36.00;;;;;17.94;85.72;100709.38;5125398;27;44809;-87
2021/08/08 07:42:53;;;;;;;;;38.50;35.75;;;;;17.95;85.32;100704.81;5050657;28;44880;-94
2021/08/08 07:45:19;;;;;;;;;34.50;33.25;;;;;18.01;87.18;100723.09;5088664;27;45068;-92
2021/08/08 07:47:45;;;;;;;;;34.00;33.25;;;;;18.16;87.25;100741.56;5113607;27;44870;-94
2021/08/08 07:50:11;;;;;;;;;49.75;42.50;;;;;17.70;87.70;100677.50;5067402;27;45303;-91
2021/08/08 07:52:36;;;;;;;;;50.00;43.00;;;;;17.89;88.15;100700.84;5077332;27;44763;-91
2021/08/08 07:55:06;;;;;;;;;25.75;25.25;;;;;17.88;87.16;100703.69;5080684;27;45122;-91
2021/08/08 07:57:35;;;;;;;;;37.50;34.00;;;;;18.01;88.81;100719.53;5065501;28;44948;-92
2021/08/08 08:00:01;;;;;;;;;25.75;25.75;;;;;17.93;87.16;100704.97;5065978;27;44829;-89
2021/08/08 08:02:26;;;;;;;;;19.00;19.00;;;;;18.33;88.11;100758.81;5047111;27;44918;-90
2021/08/08 08:04:51;;;;;;;;;19.25;17.25;;;;;18.38;88.12;100766.50;5062411;27;45185;-91
2021/08/08 08:07:17;;;;;;;;;20.25;20.25;;;;;18.13;88.52;100723.00;5058528;28;44803;-90
2021/08/08 08:09:44;;;;;;;;;47.00;40.00;;;;;18.34;87.29;100742.53;5078072;27;45262;-91
2021/08/08 08:12:09;;;;;;;;;36.75;34.00;;;;;17.94;86.28;100704.00;5059741;28;44966;-90
2021/08/08 08:14:35;;;;;;;;;41.00;37.00;;;;;17.82;88.37;100681.75;5063462;28;46951;-92
2021/08/08 08:17:03;;;;;;;;;35.00;32.25;;;;;18.26;87.72;100747.78;5079582;27;44795;-91
2021/08/08 08:19:29;;;;;;;;;23.00;23.00;;;;;18.23;86.61;100751.63;5081347;27;44820;-92
2021/08/08 08:21:54;;;;;;;;;30.75;30.75;;;;;18.27;84.49;100778.25;5062050;27;44778;-90
2021/08/08 08:24:20;;;;;;;;;29.50;27.75;;;;;17.93;86.16;100726.47;5081097;27;45249;-90
2021/08/08 08:26:45;;;;;;;;;36.00;34.75;;;;;18.30;87.82;100786.88;5046031;27;44795;-92
2021/08/08 08:29:12;;;;;;;;;40.25;36.25;;;;;17.99;86.73;100742.06;5061876;27;45164;-91
2021/08/08 08:31:38;;;;;;;;;19.00;19.00;;;;;18.30;86.14;100797.66;5059754;28;44920;-90
2021/08/08 08:34:03;;;;;;;;;29.50;29.25;;;;;17.99;86.02;100763.59;5076448;27;45244;-89
2021/08/08 08:36:29;;;;;;;;;32.75;30.25;;;;;18.08;87.28;100763.72;5071460;27;44714;-90
2021/08/08 08:38:54;;;;;;;;;25.75;25.75;;;;;18.26;83.82;100784.59;5064462;27;44916;-90
2021/08/08 08:41:25;;;;;;;;;23.50;23.50;;;;;17.89;86.82;100737.69;5048282;27;44968;-91
2021/08/08 08:43:50;;;;;;;;;23.75;23.00;;;;;18.42;86.60;100806.44;5075243;27;46957;-90
2021/08/08 08:46:16;;;;;;;;;21.50;21.00;;;;;18.07;85.58;100751.28;5058256;27;44777;-88
2021/08/08 08:48:41;;;;;;;;;29.50;29.50;;;;;18.43;82.43;100809.97;5052562;28;45208;-89
2021/08/08 08:51:07;;;;;;;;;27.00;25.67;;;;;18.44;84.21;100811.69;5085144;27;44887;-90
2021/08/08 08:53:32;;;;;;;;;30.25;27.00;;;;;18.26;84.12;100765.75;5056708;28;45026;-91
2021/08/08 08:56:01;;;;;;;;;32.50;26.75;;;;;18.25;85.22;100754.16;5052205;27;44931;-90
2021/08/08 08:58:26;;;;;;;;;36.00;34.00;;;;;18.25;87.83;100740.72;5082716;27;44836;-88
2021/08/08 09:00:52;;;;;;;;;25.50;22.25;;;;;18.34;86.43;100744.41;5077840;27;44828;-89
2021/08/08 09:03:17;;;;;;;;;35.25;33.25;;;;;18.53;82.06;100765.06;5079781;28;45341;-91
2021/08/08 09:05:43;;;;;;;;;23.50;23.50;;;;;18.71;86.75;100792.13;5074726;28;44773;-92
2021/08/08 09:08:08;;;;;;;;;38.25;34.00;;;;;18.58;87.31;100752.03;5076159;27;44790;-93
2021/08/08 09:10:34;;;;;;;;;34.75;33.50;;;;;18.66;85.54;100772.00;5059163;27;44857;-92
2021/08/08 09:13:01;;;;;;;;;37.00;34.00;;;;;18.95;85.66;100816.91;5085108;27;45216;-93
2021/08/08 09:15:34;;;;;;;;;37.00;34.00;;;;;18.92;85.44;100801.03;5052953;27;44929;-90
2021/08/08 09:18:16;;;;;;;;;21.50;21.50;;;;;18.73;79.37;100767.75;5046905;28;44838;-90
2021/08/08 09:20:42;;;;;;;;;31.75;31.75;;;;;18.95;85.25;100811.53;5069868;27;44848;-91
2021/08/08 09:23:08;;;;;;;;;33.50;31.00;;;;;18.95;84.04;100815.06;5060885;27;46610;-91
2021/08/08 09:25:33;;;;;;;;;28.50;28.50;;;;;19.02;82.92;100823.44;5061267;27;44802;-93
2021/08/08 09:28:09;;;;;;;;;30.25;30.25;;;;;19.07;82.72;100828.38;5070768;28;45320;-90
2021/08/08 09:30:38;;;;;;;;;39.50;35.00;;;;;18.99;82.35;100812.94;5057205;27;44889;-91
2021/08/08 09:33:05;;;;;;;;;25.00;23.75;;;;;18.99;79.78;100821.84;5055793;27;45123;-93
2021/08/08 09:35:41;;;;;;;;;23.00;21.50;;;;;19.04;82.64;100840.28;5042639;27;44921;-89
2021/08/08 09:38:10;;;;;;;;;44.25;38.50;;;;;18.81;85.89;100785.88;5067980;27;44835;-92
2021/08/08 09:40:40;;;;;;;;;23.00;22.00;;;;;19.02;86.76;100817.19;5054697;27;44852;-88
2021/08/08 09:43:06;;;;;;;;;28.50;28.50;;;;;19.03;85.60;100802.69;5087618;27;45390;-91
2021/08/08 09:45:42;;;;;;;;;27.25;25.00;;;;;19.14;86.80;100829.50;5077700;27;44824;-92
2021/08/08 09:48:11;;;;;;;;;44.25;38.50;;;;;19.27;86.96;100831.06;5061662;28;44857;-91
2021/08/08 09:50:36;;;;;;;;;31.75;31.00;;;;;19.36;87.42;100839.13;5052638;28;44854;-90
2021/08/08 09:53:03;;;;;;;;;22.25;20.75;;;;;19.36;85.94;100832.88;5065925;27;45124;-90
2021/08/08 09:55:34;;;;;;;;;22.75;21.75;;;;;19.39;86.77;100821.78;5069640;27;44896;-89
2021/08/08 09:58:04;;;;;;;;;38.50;34.50;;;;;19.55;86.88;100839.19;5053783;28;44735;-88
2021/08/08 10:00:33;;;;;;;;;16.50;16.50;;;;;19.46;83.75;100827.44;5052597;28;45029;-89
2021/08/08 10:02:59;;;;;;;;;10.50;10.50;;;;;19.40;81.29;100822.66;5079590;27;45239;-89
2021/08/08 10:05:25;;;;;;;;;24.25;21.75;;;;;19.23;84.05;100790.91;5044091;27;44871;-90
2021/08/08 10:07:53;;;;;;;;;11.25;10.50;;;;;19.45;84.67;100826.59;5052870;27;44729;-88
2021/08/08 10:10:19;;;;;;;;;25.50;24.25;;;;;19.56;85.49;100822.03;5057057;27;44937;-89
2021/08/08 10:13:03;;;;;;;;;23.00;22.00;;;;;19.81;82.12;100842.06;5088800;27;45317;-91
2021/08/08 10:15:28;;;;;;;;;33.50;31.75;;;;;19.48;82.26;100780.47;5103299;27;44892;-90
2021/08/08 10:17:55;;;;;;;;;27.50;24.25;;;;;19.72;83.77;100808.75;5068192;27;44752;-90
2021/08/08 10:20:22;;;;;;;;;27.50;26.50;;;;;19.73;80.54;100801.50;5063095;27;44844;-93
2021/08/08 10:22:48;;;;;;;;;23.25;21.25;;;;;19.86;81.58;100801.16;5065294;27;45123;-91
2021/08/08 10:25:13;;;;;;;;;35.00;31.50;;;;;19.92;83.77;100810.50;5078037;28;44757;-87
2021/08/08 10:27:39;;;;;;;;;9.25;9.25;;;;;19.88;83.05;100808.09;5044971;27;45086;-91
2021/08/08 10:30:05;;;;;;;;;32.25;31.25;;;;;19.88;81.36;100813.50;5050998;28;44914;-90
2021/08/08 10:32:30;;;;;;;;;29.25;27.50;;;;;19.88;82.74;100832.38;5050062;27;45490;-90
2021/08/08 10:34:56;;;;;;;;;33.75;32.75;;;;;20.11;84.63;100858.16;5065181;27;44760;-89
2021/08/08 10:37:23;;;;;;;;;23.75;23.25;;;;;19.86;84.07;100818.16;5068956;28;44772;-89
2021/08/08 10:39:49;;;;;;;;;19.25;19.25;;;;;20.14;81.41;100855.13;5080449;27;44985;-88
2021/08/08 10:42:15;;;;;;;;;33.75;32.25;;;;;20.08;79.76;100842.25;5063733;28;45301;-89
2021/08/08 10:44:45;;;;;;;;;27.50;27.50;;;;;19.76;78.93;100793.13;5076788;27;45412;-88
2021/08/08 10:47:10;;;;;;;;;29.00;27.25;;;;;19.91;83.64;100809.63;5097656;27;44800;-90
2021/08/08 10:49:36;;;;;;;;;32.75;31.75;;;;;20.14;83.08;100834.38;5082384;27;44686;-90
2021/08/08 10:52:06;;;;;;;;;25.50;25.50;;;;;20.24;80.68;100860.47;5101150;27;45078;-89
2021/08/08 10:54:41;;;;;;;;;27.25;27.00;;;;;20.17;78.45;100849.44;5083225;27;44805;-90
2021/08/08 10:57:11;;;;;;;;;20.75;20.25;;;;;20.09;79.94;100842.09;5078876;27;44903;-91
2021/08/08 10:59:50;;;;;;;;;25.25;24.25;;;;;20.00;84.07;100824.97;5097865;27;44811;-90
2021/08/08 11:02:27;;;;;;;;;32.25;31.25;;;;;20.11;81.79;100826.59;5064593;27;45085;-92
2021/08/08 11:04:54;;;;;;;;;12.00;11.00;;;;;20.09;78.72;100808.84;5082251;27;44826;-93